Festivo — EAEQ — position and weather

sailwx.info

Track history (hours):
 
Tides and Currents Weather Stations Pressure Air Temp Water Temp Dewpoint Dewpoint Depression Visibility Wind Speed Wind Dir Waves Ship Positions

Festivo

Last reported at 2017-Nov-14 10:51 UTC. Time now 2017-Nov-18 02:56 UTC.
Position N 35°58' W 005°15'.

Length 136 m; draft 4.5 m.

Type: Cargo ship. MMSI: 225410000.

Date/timePositionNaut miles runAvg speedWind from/ knotsBaromVisibWave heightAir tempDewpointWater temp
2017-Nov-14 10:51N 35°58' W 005°15'411.9
2017-Nov-14 10:31N 35°55' W 005°18'2 3.0
2017-Nov-14 10:00N 35°54' W 005°19'0 0.0
2017-Nov-14 09:22N 35°54' W 005°19'0 0.0
2017-Nov-14 08:58N 35°54' W 005°19'0 0.0
2017-Nov-14 08:28N 35°54' W 005°19'0 0.0
2017-Nov-14 07:58N 35°54' W 005°19'0 0.0
2017-Nov-14 07:25N 35°54' W 005°19'0 0.0
2017-Nov-14 06:58N 35°54' W 005°19'0 0.0
2017-Nov-14 06:28N 35°54' W 005°19'0 0.0
2017-Nov-14 05:58N 35°54' W 005°19'0 0.7
2017-Nov-14 05:30N 35°54' W 005°19'3 6.5
2017-Nov-14 05:00N 35°56' W 005°16'3 6.2
2017-Nov-14 04:29N 35°58' W 005°13'  
2017-Nov-09 10:38N 35°56' W 005°17'111.3
2017-Nov-09 10:30N 35°55' W 005°18'2 3.1
2017-Nov-09 09:57N 35°54' W 005°19'0 0.0
2017-Nov-09 09:30N 35°54' W 005°19'0 0.0
2017-Nov-09 09:00N 35°54' W 005°19'0 0.0
2017-Nov-09 08:30N 35°54' W 005°19'0 0.0
2017-Nov-09 08:00N 35°54' W 005°19'0 0.0
2017-Nov-09 07:30N 35°54' W 005°19'0 0.0
2017-Nov-09 07:00N 35°54' W 005°19'1 2.5
2017-Nov-09 06:30N 35°55' W 005°18'  
2017-Nov-04 17:06N 35°55' W 005°17'110.4
2017-Nov-04 17:00N 35°55' W 005°18'2 3.2
2017-Nov-04 16:30N 35°54' W 005°19'0 0.0
2017-Nov-04 16:00N 35°54' W 005°19'0 0.0
2017-Nov-04 15:30N 35°54' W 005°19'0 0.0
2017-Nov-04 15:00N 35°54' W 005°19'0 0.0
2017-Nov-04 14:30N 35°54' W 005°19'0 0.0
2017-Nov-04 14:00N 35°54' W 005°19'0 0.0
2017-Nov-04 13:30N 35°54' W 005°19'0 0.0
2017-Nov-04 13:00N 35°54' W 005°19'0 0.0
2017-Nov-04 12:30N 35°54' W 005°19'0 0.0
2017-Nov-04 12:00N 35°54' W 005°19'0 0.0
2017-Nov-04 11:30N 35°54' W 005°19'0 0.0
2017-Nov-04 11:00N 35°54' W 005°19'  
Track history (hours):
 
Tides and Currents Weather Stations Pressure Air Temp Water Temp Dewpoint Dewpoint Depression Visibility Wind Speed Wind Dir Waves Ship Positions

Festivo

Last reported at 2017-Nov-14 10:51 UTC. Time now 2017-Nov-18 02:56 UTC.
Position N 35°58' W 005°15'.

Length 136 m; draft 4.5 m.

Type: Cargo ship. MMSI: 225410000.

Date/timePositionNaut miles runAvg speedWind from/ knotsBaromVisibWave heightAir tempDewpointWater temp
2017-Nov-14 10:51N 35°58' W 005°15'411.9
2017-Nov-14 10:31N 35°55' W 005°18'2 3.0
2017-Nov-14 10:00N 35°54' W 005°19'0 0.0
2017-Nov-14 09:22N 35°54' W 005°19'0 0.0
2017-Nov-14 08:58N 35°54' W 005°19'0 0.0
2017-Nov-14 08:28N 35°54' W 005°19'0 0.0
2017-Nov-14 07:58N 35°54' W 005°19'0 0.0
2017-Nov-14 07:25N 35°54' W 005°19'0 0.0
2017-Nov-14 06:58N 35°54' W 005°19'0 0.0
2017-Nov-14 06:28N 35°54' W 005°19'0 0.0
2017-Nov-14 05:58N 35°54' W 005°19'0 0.7
2017-Nov-14 05:30N 35°54' W 005°19'3 6.5
2017-Nov-14 05:00N 35°56' W 005°16'3 6.2
2017-Nov-14 04:29N 35°58' W 005°13'  
2017-Nov-09 10:38N 35°56' W 005°17'111.3
2017-Nov-09 10:30N 35°55' W 005°18'2 3.1
2017-Nov-09 09:57N 35°54' W 005°19'0 0.0
2017-Nov-09 09:30N 35°54' W 005°19'0 0.0
2017-Nov-09 09:00N 35°54' W 005°19'0 0.0
2017-Nov-09 08:30N 35°54' W 005°19'0 0.0
2017-Nov-09 08:00N 35°54' W 005°19'0 0.0
2017-Nov-09 07:30N 35°54' W 005°19'0 0.0
2017-Nov-09 07:00N 35°54' W 005°19'1 2.5
2017-Nov-09 06:30N 35°55' W 005°18'  
2017-Nov-04 17:06N 35°55' W 005°17'110.4
2017-Nov-04 17:00N 35°55' W 005°18'2 3.2
2017-Nov-04 16:30N 35°54' W 005°19'0 0.0
2017-Nov-04 16:00N 35°54' W 005°19'0 0.0
2017-Nov-04 15:30N 35°54' W 005°19'0 0.0
2017-Nov-04 15:00N 35°54' W 005°19'0 0.0
2017-Nov-04 14:30N 35°54' W 005°19'0 0.0
2017-Nov-04 14:00N 35°54' W 005°19'0 0.0
2017-Nov-04 13:30N 35°54' W 005°19'0 0.0
2017-Nov-04 13:00N 35°54' W 005°19'0 0.0
2017-Nov-04 12:30N 35°54' W 005°19'0 0.0
2017-Nov-04 12:00N 35°54' W 005°19'0 0.0
2017-Nov-04 11:30N 35°54' W 005°19'0 0.0
2017-Nov-04 11:00N 35°54' W 005°19'  

Dump ship's entire track history